createdAt,value
2018-03-11T00:00:58.381Z,998.23
2018-03-11T00:01:58.398Z,998.2
2018-03-11T00:02:58.417Z,998.18
2018-03-11T00:03:58.433Z,998.22
2018-03-11T00:04:58.451Z,998.2
2018-03-11T00:05:58.468Z,998.19
2018-03-11T00:06:58.487Z,998.18
2018-03-11T00:07:58.523Z,998.21
2018-03-11T00:08:58.523Z,998.22
2018-03-11T00:09:58.540Z,998.17
2018-03-11T00:10:58.560Z,998.08
2018-03-11T00:11:58.573Z,998.18
2018-03-11T00:12:58.595Z,998.15
2018-03-11T00:13:58.611Z,998.18
2018-03-11T00:15:58.646Z,998.17
2018-03-11T00:16:58.664Z,998.18
2018-03-11T00:17:58.684Z,998.19
2018-03-11T00:18:58.700Z,998.16
2018-03-11T00:19:58.721Z,998.19
2018-03-11T00:20:58.734Z,998.17
2018-03-11T00:21:58.755Z,998.17
2018-03-11T00:22:58.769Z,998.16
2018-03-11T00:23:58.791Z,998.19
2018-03-11T00:24:58.805Z,998.21
2018-03-11T00:25:58.824Z,998.21
2018-03-11T00:26:58.841Z,998.22
2018-03-11T00:27:58.862Z,998.21
2018-03-11T00:28:58.875Z,998.18
2018-03-11T00:29:58.892Z,998.17
2018-03-11T00:30:58.915Z,998.19
2018-03-11T00:31:58.926Z,998.18
2018-03-11T00:32:58.945Z,998.17
2018-03-11T00:33:58.964Z,998.16
2018-03-11T00:34:58.980Z,998.17
2018-03-11T00:35:58.998Z,998.17
2018-03-11T00:36:59.017Z,998.16
2018-03-11T00:37:59.033Z,998.18
2018-03-11T00:38:59.051Z,998.14
2018-03-11T00:39:59.068Z,998.16
2018-03-11T00:40:59.135Z,998.14
2018-03-11T00:41:59.104Z,998.14
2018-03-11T00:42:59.121Z,998.15
2018-03-11T00:43:59.139Z,998.14
2018-03-11T00:44:59.156Z,998.14
2018-03-11T00:45:59.212Z,998.13
2018-03-11T00:47:59.209Z,998.12
2018-03-11T00:48:59.231Z,998.12
2018-03-11T00:49:59.244Z,998.11
2018-03-11T00:50:59.262Z,998.11
2018-03-11T00:51:59.279Z,998.09
2018-03-11T00:52:59.297Z,998.08
2018-03-11T00:53:59.314Z,998.07
2018-03-11T00:54:59.331Z,998.09
2018-03-11T00:55:59.349Z,998.07
2018-03-11T00:56:59.367Z,998.1
2018-03-11T00:57:59.384Z,998.08
2018-03-11T00:58:59.402Z,998.05
2018-03-11T00:59:59.420Z,998.07
2018-03-11T01:00:59.436Z,998.06
2018-03-11T01:01:59.454Z,998.04
2018-03-11T01:03:59.490Z,998.04
2018-03-11T01:04:59.506Z,998.01
2018-03-11T01:05:59.524Z,998
2018-03-11T01:06:59.542Z,997.98
2018-03-11T01:07:59.558Z,997.94
2018-03-11T01:08:59.576Z,997.93
2018-03-11T01:09:59.594Z,997.92
2018-03-11T01:10:59.612Z,997.91
2018-03-11T01:11:59.628Z,997.92
2018-03-11T01:12:59.648Z,997.91
2018-03-11T01:13:59.763Z,997.91
2018-03-11T01:14:59.681Z,997.92
2018-03-11T01:15:59.698Z,997.91
2018-03-11T01:16:59.715Z,997.91
2018-03-11T01:17:59.732Z,997.85
2018-03-11T01:19:59.769Z,997.81
2018-03-11T01:20:59.784Z,997.84
2018-03-11T01:21:59.802Z,997.81
2018-03-11T01:22:59.818Z,997.8
2018-03-11T01:23:59.836Z,997.79
2018-03-11T01:24:59.853Z,997.76
2018-03-11T01:25:59.872Z,997.74
2018-03-11T01:26:59.888Z,997.73
2018-03-11T01:27:59.906Z,997.76
2018-03-11T01:28:59.924Z,997.79
2018-03-11T01:29:59.939Z,997.81
2018-03-11T01:30:59.957Z,997.8
2018-03-11T01:31:59.974Z,997.8
2018-03-11T01:32:59.993Z,997.82
2018-03-11T01:34:00.009Z,997.8
2018-03-11T01:36:00.045Z,997.8
2018-03-11T01:37:00.061Z,997.79
2018-03-11T01:38:00.078Z,997.8
2018-03-11T01:39:00.095Z,997.81
2018-03-11T01:40:00.113Z,997.81
2018-03-11T01:41:00.129Z,997.79
2018-03-11T01:42:00.145Z,997.76
2018-03-11T01:43:00.164Z,997.77
2018-03-11T01:44:00.181Z,997.77
2018-03-11T01:45:00.198Z,997.74
2018-03-11T01:46:00.215Z,997.73
2018-03-11T01:47:00.232Z,997.72
2018-03-11T01:48:00.250Z,997.73
2018-03-11T01:49:00.270Z,997.72
2018-03-11T01:51:00.302Z,997.73
2018-03-11T01:52:00.319Z,997.75
2018-03-11T01:53:00.336Z,997.75
2018-03-11T01:54:00.353Z,997.75
2018-03-11T01:55:00.372Z,997.76
2018-03-11T01:56:00.387Z,997.74
2018-03-11T01:57:00.406Z,997.75
2018-03-11T01:58:00.422Z,997.73
2018-03-11T01:59:00.439Z,997.76
2018-03-11T02:00:00.457Z,997.77
2018-03-11T02:01:00.474Z,997.82
2018-03-11T02:02:00.494Z,997.8
2018-03-11T02:03:00.512Z,997.81
2018-03-11T02:04:00.526Z,997.83
2018-03-11T02:05:00.543Z,997.8
2018-03-11T02:06:00.560Z,997.83
2018-03-11T02:07:00.577Z,997.78
2018-03-11T02:08:00.596Z,997.76
2018-03-11T02:09:00.612Z,997.8
2018-03-11T02:10:00.672Z,997.8
2018-03-11T02:11:00.647Z,997.81
2018-03-11T02:12:00.666Z,997.8
2018-03-11T02:13:00.685Z,997.77
2018-03-11T02:14:00.698Z,997.76
2018-03-11T02:15:00.713Z,997.79
2018-03-11T02:16:00.733Z,997.75
2018-03-11T02:17:00.750Z,997.79
2018-03-11T02:18:00.769Z,997.81
2018-03-11T02:19:00.784Z,997.77
2018-03-11T02:20:00.802Z,997.8
2018-03-11T02:21:00.819Z,997.79
2018-03-11T02:23:00.853Z,997.77
2018-03-11T02:24:00.870Z,997.73
2018-03-11T02:25:00.887Z,997.71
2018-03-11T02:26:00.904Z,997.71
2018-03-11T02:27:00.922Z,997.72
2018-03-11T02:28:00.939Z,997.73
2018-03-11T02:29:00.956Z,997.7
2018-03-11T02:30:00.974Z,997.68
2018-03-11T02:31:00.990Z,997.68
2018-03-11T02:32:01.007Z,997.63
2018-03-11T02:33:01.026Z,997.66
2018-03-11T02:34:01.043Z,997.67
2018-03-11T02:35:01.066Z,997.66
2018-03-11T02:36:01.076Z,997.65
2018-03-11T02:37:01.100Z,997.68
2018-03-11T02:39:01.129Z,997.63
2018-03-11T02:40:01.144Z,997.68
2018-03-11T02:41:01.168Z,997.61
2018-03-11T02:42:01.179Z,997.64
2018-03-11T02:43:01.195Z,997.57
2018-03-11T02:44:01.213Z,997.56
2018-03-11T02:45:01.230Z,997.57
2018-03-11T02:46:01.247Z,997.58
2018-03-11T02:47:01.262Z,997.55
2018-03-11T02:48:01.280Z,997.55
2018-03-11T02:49:01.300Z,997.61
2018-03-11T02:50:01.316Z,997.57
2018-03-11T02:51:01.331Z,997.56
2018-03-11T02:52:01.360Z,997.53
2018-03-11T02:53:01.365Z,997.58
2018-03-11T02:55:01.398Z,997.57
2018-03-11T02:56:01.415Z,997.55
2018-03-11T02:57:01.432Z,997.56
2018-03-11T02:58:01.449Z,997.57
2018-03-11T02:59:01.466Z,997.57
2018-03-11T03:00:01.482Z,997.6
2018-03-11T03:01:01.500Z,997.57
2018-03-11T03:02:01.516Z,997.55
2018-03-11T03:03:01.533Z,997.57
2018-03-11T03:04:01.650Z,997.54
2018-03-11T03:05:01.569Z,997.53
2018-03-11T03:06:01.583Z,997.55
2018-03-11T03:07:01.600Z,997.57
2018-03-11T03:08:01.621Z,997.56
2018-03-11T03:09:01.635Z,997.52
2018-03-11T03:11:01.668Z,997.52
2018-03-11T03:12:01.685Z,997.46
2018-03-11T03:13:01.702Z,997.48
2018-03-11T03:14:01.718Z,997.48
2018-03-11T03:15:01.735Z,997.48
2018-03-11T03:16:01.754Z,997.46
2018-03-11T03:17:01.768Z,997.48
2018-03-11T03:18:01.785Z,997.47
2018-03-11T03:19:01.802Z,997.46
2018-03-11T03:20:01.818Z,997.46
2018-03-11T03:21:01.835Z,997.43
2018-03-11T03:22:01.853Z,997.4
2018-03-11T03:23:01.869Z,997.41
2018-03-11T03:24:01.886Z,997.45
2018-03-11T03:26:01.920Z,997.43
2018-03-11T03:27:01.936Z,997.4
2018-03-11T03:28:01.953Z,997.45
2018-03-11T03:29:01.970Z,997.42
2018-03-11T03:30:01.988Z,997.43
2018-03-11T03:31:02.004Z,997.42
2018-03-11T03:32:02.023Z,997.39
2018-03-11T03:33:02.038Z,997.37
2018-03-11T03:34:02.053Z,997.36
2018-03-11T03:35:02.070Z,997.33
2018-03-11T03:36:02.087Z,997.3
2018-03-11T03:37:02.104Z,997.32
2018-03-11T03:38:02.120Z,997.3
2018-03-11T03:39:02.160Z,997.27
2018-03-11T03:40:02.155Z,997.3
2018-03-11T03:41:02.171Z,997.32
2018-03-11T03:42:02.188Z,997.3
2018-03-11T03:43:02.203Z,997.32
2018-03-11T03:44:02.220Z,997.33
2018-03-11T03:45:02.239Z,997.33
2018-03-11T03:46:02.254Z,997.34
2018-03-11T03:47:02.271Z,997.37
2018-03-11T03:48:02.286Z,997.34
2018-03-11T03:49:02.361Z,997.31
2018-03-11T03:50:02.352Z,997.37
2018-03-11T03:51:02.336Z,997.36
2018-03-11T03:52:02.354Z,997.37
2018-03-11T03:53:02.369Z,997.4
2018-03-11T03:54:02.389Z,997.39
2018-03-11T03:55:02.406Z,997.4
2018-03-11T03:56:02.424Z,997.38
2018-03-11T03:58:02.452Z,997.35
2018-03-11T03:59:02.469Z,997.37
2018-03-11T04:00:02.485Z,997.39
2018-03-11T04:01:02.502Z,997.4
2018-03-11T04:02:02.519Z,997.37
2018-03-11T04:03:02.536Z,997.37
2018-03-11T04:04:02.555Z,997.38
2018-03-11T04:05:02.568Z,997.39
2018-03-11T04:06:02.585Z,997.4
2018-03-11T04:07:02.601Z,997.43
2018-03-11T04:08:02.618Z,997.43
2018-03-11T04:09:02.653Z,997.45
2018-03-11T04:10:02.652Z,997.44
2018-03-11T04:11:02.722Z,997.43
2018-03-11T04:12:02.689Z,997.44
2018-03-11T04:14:02.717Z,997.38
2018-03-11T04:15:02.734Z,997.37
2018-03-11T04:16:02.751Z,997.38
2018-03-11T04:17:02.767Z,997.36
2018-03-11T04:18:02.783Z,997.35
2018-03-11T04:19:02.800Z,997.3
2018-03-11T04:20:02.826Z,997.33
2018-03-11T04:21:02.833Z,997.29
2018-03-11T04:22:02.849Z,997.29
2018-03-11T04:23:02.866Z,997.26
2018-03-11T04:24:02.882Z,997.26
2018-03-11T04:25:02.900Z,997.29
2018-03-11T04:26:02.915Z,997.31
2018-03-11T04:27:02.932Z,997.31
2018-03-11T04:28:02.948Z,997.29
2018-03-11T04:30:02.981Z,997.29
2018-03-11T04:31:02.998Z,997.26
2018-03-11T04:32:03.014Z,997.3
2018-03-11T04:33:03.030Z,997.32
2018-03-11T04:34:03.051Z,997.3
2018-03-11T04:35:03.064Z,997.34
2018-03-11T04:36:03.080Z,997.27
2018-03-11T04:37:03.098Z,997.28
2018-03-11T04:38:03.111Z,997.32
2018-03-11T04:39:03.129Z,997.25
2018-03-11T04:40:03.144Z,997.27
2018-03-11T04:41:03.161Z,997.24
2018-03-11T04:42:03.178Z,997.24
2018-03-11T04:43:03.195Z,997.23
2018-03-11T04:44:03.215Z,997.23
2018-03-11T04:46:03.243Z,997.23
2018-03-11T04:47:03.260Z,997.2
2018-03-11T04:48:03.276Z,997.22
2018-03-11T04:49:03.292Z,997.2
2018-03-11T04:50:03.310Z,997.19
2018-03-11T04:51:03.327Z,997.16
2018-03-11T04:52:03.340Z,997.19
2018-03-11T04:53:03.357Z,997.21
2018-03-11T04:54:03.374Z,997.21
2018-03-11T04:55:03.389Z,997.18
2018-03-11T04:56:03.406Z,997.16
2018-03-11T04:57:03.424Z,997.15
2018-03-11T04:58:03.438Z,997.22
2018-03-11T04:59:03.455Z,997.2
2018-03-11T05:01:03.488Z,997.17
2018-03-11T05:02:03.503Z,997.17
2018-03-11T05:03:03.520Z,997.16
2018-03-11T05:04:03.537Z,997.17
2018-03-11T05:05:03.553Z,997.17
2018-03-11T05:06:03.568Z,997.19
2018-03-11T05:07:03.584Z,997.16
2018-03-11T05:08:03.601Z,997.15
2018-03-11T05:09:03.617Z,997.15
2018-03-11T05:10:03.633Z,997.14
2018-03-11T05:11:03.650Z,997.13
2018-03-11T05:12:03.665Z,997.14
2018-03-11T05:13:03.681Z,997.16
2018-03-11T05:14:03.698Z,997.15
2018-03-11T05:15:03.714Z,997.1
2018-03-11T05:16:03.730Z,997.16
2018-03-11T05:17:03.746Z,997.14
2018-03-11T05:18:03.762Z,997.17
2018-03-11T05:19:03.779Z,997.15
2018-03-11T05:20:03.795Z,997.12
2018-03-11T05:21:03.811Z,997.09
2018-03-11T05:22:03.827Z,997.12
2018-03-11T05:23:03.844Z,997.13
2018-03-11T05:24:03.859Z,997.11
2018-03-11T05:25:03.876Z,997.1
2018-03-11T05:26:03.892Z,997.09
2018-03-11T05:27:03.908Z,997.1
2018-03-11T05:28:03.924Z,997.05
2018-03-11T05:29:03.940Z,997.03
2018-03-11T05:30:03.956Z,997.03
2018-03-11T05:31:03.970Z,997.05
2018-03-11T05:33:04.009Z,997.05
2018-03-11T05:34:04.021Z,997.05
2018-03-11T05:35:04.037Z,997.05
2018-03-11T05:36:04.053Z,997.06
2018-03-11T05:37:04.069Z,997.05
2018-03-11T05:38:04.085Z,997.01
2018-03-11T05:39:04.100Z,997
2018-03-11T05:40:04.118Z,996.98
2018-03-11T05:41:04.134Z,997
2018-03-11T05:42:04.149Z,996.97
2018-03-11T05:43:04.165Z,996.93
2018-03-11T05:44:04.182Z,997.01
2018-03-11T05:45:04.198Z,996.95
2018-03-11T05:46:04.214Z,996.98
2018-03-11T05:47:04.231Z,997
2018-03-11T05:49:04.263Z,996.97
2018-03-11T05:50:04.279Z,996.96
2018-03-11T05:51:04.295Z,996.97
2018-03-11T05:52:04.312Z,996.97
2018-03-11T05:53:04.327Z,996.94
2018-03-11T05:54:04.342Z,996.96
2018-03-11T05:55:04.359Z,996.98
2018-03-11T05:56:04.375Z,997.01
2018-03-11T05:57:04.392Z,997.02
2018-03-11T05:58:04.410Z,997.02
2018-03-11T05:59:04.428Z,996.99
2018-03-11T06:00:04.442Z,997
2018-03-11T06:01:04.457Z,996.99
2018-03-11T06:02:04.474Z,997.01
2018-03-11T06:03:04.491Z,996.98
2018-03-11T06:05:04.523Z,996.96
2018-03-11T06:06:04.540Z,996.92
2018-03-11T06:07:04.556Z,996.87
2018-03-11T06:08:04.573Z,996.87
2018-03-11T06:09:04.589Z,996.89
2018-03-11T06:10:04.607Z,996.84
2018-03-11T06:11:04.624Z,996.82
2018-03-11T06:12:04.640Z,996.82
2018-03-11T06:13:04.658Z,996.85
2018-03-11T06:14:04.676Z,996.83
2018-03-11T06:15:04.691Z,996.79
2018-03-11T06:16:04.710Z,996.74
2018-03-11T06:17:04.743Z,996.67
2018-03-11T06:18:04.747Z,996.69
2018-03-11T06:19:04.764Z,996.65
2018-03-11T06:21:04.804Z,996.75
2018-03-11T06:22:04.821Z,996.77
2018-03-11T06:23:04.840Z,996.72
2018-03-11T06:24:04.859Z,996.84
2018-03-11T06:25:04.888Z,996.82
2018-03-11T06:26:04.899Z,996.84
2018-03-11T06:27:04.920Z,996.83
2018-03-11T06:28:04.940Z,996.84
2018-03-11T06:29:04.962Z,996.88
2018-03-11T06:30:04.982Z,996.95
2018-03-11T06:31:05.004Z,996.92
2018-03-11T06:32:05.027Z,996.96
2018-03-11T06:33:05.053Z,997.01
2018-03-11T06:34:05.070Z,997.04
2018-03-11T06:36:05.116Z,997.07
2018-03-11T06:37:05.138Z,997.09
2018-03-11T06:38:05.161Z,997.07
2018-03-11T06:39:05.184Z,997.08
2018-03-11T06:40:05.207Z,997.08
2018-03-11T06:41:05.230Z,997.14
2018-03-11T06:42:05.253Z,997.11
2018-03-11T06:43:05.278Z,997.16
2018-03-11T06:44:05.321Z,997.17
2018-03-11T06:45:05.325Z,997.2
2018-03-11T06:46:05.349Z,997.2
2018-03-11T06:47:05.475Z,997.2
2018-03-11T06:48:05.397Z,997.23
2018-03-11T06:49:05.422Z,997.23
2018-03-11T06:50:05.446Z,997.31
2018-03-11T06:51:05.471Z,997.35
2018-03-11T06:52:05.496Z,997.33
2018-03-11T06:53:05.521Z,997.38
2018-03-11T06:54:05.546Z,997.39
2018-03-11T06:55:05.581Z,997.41
2018-03-11T06:56:05.598Z,997.42
2018-03-11T06:57:05.624Z,997.42
2018-03-11T06:58:05.646Z,997.41
2018-03-11T06:59:05.672Z,997.45
2018-03-11T07:00:05.697Z,997.44
2018-03-11T07:01:05.723Z,997.49
2018-03-11T07:02:05.754Z,997.5
2018-03-11T07:03:05.775Z,997.55
2018-03-11T07:04:05.801Z,997.59
2018-03-11T07:05:05.827Z,997.56
2018-03-11T07:06:05.854Z,997.6
2018-03-11T07:08:05.904Z,997.62
2018-03-11T07:09:05.931Z,997.63
2018-03-11T07:10:05.957Z,997.65
2018-03-11T07:11:05.984Z,997.69
2018-03-11T07:12:06.010Z,997.67
2018-03-11T07:13:06.037Z,997.66
2018-03-11T07:14:06.162Z,997.67
2018-03-11T07:15:06.095Z,997.65
2018-03-11T07:16:06.117Z,997.6
2018-03-11T07:17:06.142Z,997.59
2018-03-11T07:18:06.175Z,997.56
2018-03-11T07:19:06.197Z,997.53
2018-03-11T07:20:06.222Z,997.57
2018-03-11T07:21:06.249Z,997.55
2018-03-11T07:22:06.275Z,997.59
2018-03-11T07:24:06.329Z,997.54
2018-03-11T07:25:06.358Z,997.52
2018-03-11T07:26:06.381Z,997.54
2018-03-11T07:27:06.416Z,997.56
2018-03-11T07:28:06.434Z,997.55
2018-03-11T07:29:06.460Z,997.58
2018-03-11T07:30:06.488Z,997.59
2018-03-11T07:31:06.515Z,997.56
2018-03-11T07:32:06.541Z,997.61
2018-03-11T07:33:06.567Z,997.6
2018-03-11T07:34:06.594Z,997.57
2018-03-11T07:35:06.621Z,997.56
2018-03-11T07:36:06.648Z,997.57
2018-03-11T07:37:06.674Z,997.51
2018-03-11T07:38:06.704Z,997.5
2018-03-11T07:40:06.754Z,997.46
2018-03-11T07:41:06.792Z,997.45
2018-03-11T07:42:06.810Z,997.42
2018-03-11T07:43:06.833Z,997.42
2018-03-11T07:44:06.860Z,997.43
2018-03-11T07:45:06.911Z,997.3
2018-03-11T07:46:06.913Z,997.29
2018-03-11T07:47:06.939Z,997.28
2018-03-11T07:48:06.966Z,997.28
2018-03-11T07:49:06.993Z,997.22
2018-03-11T07:50:07.018Z,997.2
2018-03-11T07:51:07.046Z,997.15
2018-03-11T07:52:07.073Z,997.17
2018-03-11T07:53:07.099Z,997.17
2018-03-11T07:54:07.124Z,997.14
2018-03-11T07:56:07.181Z,997.16
2018-03-11T07:57:07.204Z,997.18
2018-03-11T07:58:07.230Z,997.18
2018-03-11T07:59:07.264Z,997.13
2018-03-11T08:00:07.284Z,997.15
2018-03-11T08:01:07.310Z,997.14
2018-03-11T08:02:07.340Z,997.12
2018-03-11T08:03:07.361Z,997.12
2018-03-11T08:04:07.395Z,997.16
2018-03-11T08:05:07.416Z,997.11
2018-03-11T08:06:07.440Z,997.14
2018-03-11T08:07:07.467Z,997.11
2018-03-11T08:08:07.494Z,997.12
2018-03-11T08:09:07.521Z,997.11
2018-03-11T08:11:07.578Z,997.09
2018-03-11T08:12:07.599Z,997.15
2018-03-11T08:13:07.625Z,997.09
2018-03-11T08:14:07.652Z,997.08
2018-03-11T08:15:07.679Z,997.12
2018-03-11T08:16:07.711Z,997.08
2018-03-11T08:17:07.730Z,997.07
2018-03-11T08:18:07.757Z,997.04
2018-03-11T08:19:07.782Z,997.09
2018-03-11T08:20:07.808Z,997.07
2018-03-11T08:21:07.835Z,997.06
2018-03-11T08:22:07.865Z,997.04
2018-03-11T08:23:07.889Z,997.07
2018-03-11T08:24:07.912Z,997.07
2018-03-11T08:25:07.939Z,997.11
2018-03-11T08:26:07.971Z,997.11
2018-03-11T08:27:07.991Z,997.1
2018-03-11T08:28:08.016Z,997.1
2018-03-11T08:29:08.043Z,997.11
2018-03-11T08:30:08.068Z,997.09
2018-03-11T08:31:08.095Z,997.11
2018-03-11T08:32:08.133Z,997.1
2018-03-11T08:33:08.161Z,997.08
2018-03-11T08:34:08.172Z,997.07
2018-03-11T08:35:08.199Z,997.06
2018-03-11T08:36:08.260Z,997.06
2018-03-11T08:37:08.251Z,997.03
2018-03-11T08:38:08.277Z,997.04
2018-03-11T08:39:08.303Z,997.01
2018-03-11T08:40:08.329Z,996.97
2018-03-11T08:41:08.354Z,996.95
2018-03-11T08:43:08.406Z,996.92
2018-03-11T08:44:08.433Z,996.93
2018-03-11T08:45:08.458Z,996.9
2018-03-11T08:46:08.484Z,996.92
2018-03-11T08:47:08.511Z,996.88
2018-03-11T08:48:08.538Z,996.89
2018-03-11T08:49:08.562Z,996.9
2018-03-11T08:50:08.592Z,996.9
2018-03-11T08:51:08.614Z,996.9
2018-03-11T08:52:08.640Z,996.89
2018-03-11T08:53:08.666Z,996.86
2018-03-11T08:54:08.692Z,996.89
2018-03-11T08:55:08.718Z,996.86
2018-03-11T08:56:08.744Z,996.83
2018-03-11T08:57:08.770Z,996.87
2018-03-11T08:59:08.822Z,996.85
2018-03-11T09:00:08.847Z,996.81
2018-03-11T09:01:08.874Z,996.82
2018-03-11T09:02:08.901Z,996.83
2018-03-11T09:03:08.924Z,996.82
2018-03-11T09:04:08.951Z,996.84
2018-03-11T09:05:08.977Z,996.86
2018-03-11T09:06:09.004Z,996.83
2018-03-11T09:07:09.029Z,996.82
2018-03-11T09:08:09.059Z,996.76
2018-03-11T09:09:09.080Z,996.79
2018-03-11T09:10:09.107Z,996.83
2018-03-11T09:11:09.132Z,996.76
2018-03-11T09:12:09.158Z,996.75
2018-03-11T09:13:09.184Z,996.75
2018-03-11T09:15:09.236Z,996.76
2018-03-11T09:16:09.262Z,996.75
2018-03-11T09:17:09.288Z,996.72
2018-03-11T09:18:09.374Z,996.75
2018-03-11T09:19:09.341Z,996.79
2018-03-11T09:20:09.372Z,996.81
2018-03-11T09:21:09.392Z,996.79
2018-03-11T09:22:09.417Z,996.82
2018-03-11T09:23:09.443Z,996.8
2018-03-11T09:24:09.469Z,996.79
2018-03-11T09:25:09.495Z,996.84
2018-03-11T09:26:09.522Z,996.78
2018-03-11T09:27:09.548Z,996.77
2018-03-11T09:28:09.573Z,996.74
2018-03-11T09:29:09.599Z,996.74
2018-03-11T09:31:09.657Z,996.79
2018-03-11T09:32:09.678Z,996.75
2018-03-11T09:33:09.703Z,996.74
2018-03-11T09:34:09.730Z,996.73
2018-03-11T09:35:09.756Z,996.7
2018-03-11T09:36:09.783Z,996.68
2018-03-11T09:37:09.808Z,996.68
2018-03-11T09:38:09.835Z,996.65
2018-03-11T09:39:09.861Z,996.65
2018-03-11T09:40:09.886Z,996.63
2018-03-11T09:41:09.913Z,996.62
2018-03-11T09:42:09.939Z,996.64
2018-03-11T09:43:09.967Z,996.63
2018-03-11T09:44:09.992Z,996.62
2018-03-11T09:46:10.045Z,996.57
2018-03-11T09:47:10.070Z,996.55
2018-03-11T09:48:10.097Z,996.52
2018-03-11T09:49:10.123Z,996.52
2018-03-11T09:50:10.150Z,996.5
2018-03-11T09:51:10.175Z,996.47
2018-03-11T09:52:10.204Z,996.48
2018-03-11T09:53:10.228Z,996.46
2018-03-11T09:54:10.253Z,996.44
2018-03-11T09:55:10.280Z,996.44
2018-03-11T09:56:10.306Z,996.44
2018-03-11T09:57:10.333Z,996.37
2018-03-11T09:58:10.358Z,996.4
2018-03-11T09:59:10.395Z,996.41
2018-03-11T10:00:10.411Z,996.41
2018-03-11T10:01:10.438Z,996.38
2018-03-11T10:02:10.463Z,996.42
2018-03-11T10:03:10.489Z,996.35
2018-03-11T10:04:10.515Z,996.36
2018-03-11T10:05:10.542Z,996.33
2018-03-11T10:06:10.567Z,996.32
2018-03-11T10:07:10.694Z,996.29
2018-03-11T10:08:10.623Z,996.28
2018-03-11T10:09:10.646Z,996.33
2018-03-11T10:10:10.671Z,996.29
2018-03-11T10:11:10.698Z,996.29
2018-03-11T10:12:10.726Z,996.32
2018-03-11T10:13:10.750Z,996.29
2018-03-11T10:14:10.775Z,996.31
2018-03-11T10:15:10.804Z,996.26
2018-03-11T10:16:10.827Z,996.27
2018-03-11T10:18:10.882Z,996.3
2018-03-11T10:19:10.906Z,996.27
2018-03-11T10:20:10.931Z,996.24
2018-03-11T10:21:10.958Z,996.26
2018-03-11T10:22:10.984Z,996.27
2018-03-11T10:23:11.010Z,996.3
2018-03-11T10:24:11.035Z,996.32
2018-03-11T10:25:11.061Z,996.29
2018-03-11T10:26:11.088Z,996.29
2018-03-11T10:27:11.113Z,996.28
2018-03-11T10:28:11.140Z,996.24
2018-03-11T10:29:11.165Z,996.21
2018-03-11T10:30:11.236Z,996.2
2018-03-11T10:31:11.217Z,996.2
2018-03-11T10:32:11.242Z,996.2
2018-03-11T10:34:11.295Z,996.23
2018-03-11T10:35:11.319Z,996.23
2018-03-11T10:36:11.346Z,996.25
2018-03-11T10:37:11.371Z,996.27
2018-03-11T10:38:11.396Z,996.25
2018-03-11T10:39:11.422Z,996.24
2018-03-11T10:40:11.449Z,996.25
2018-03-11T10:41:11.473Z,996.18
2018-03-11T10:42:11.498Z,996.2
2018-03-11T10:43:11.524Z,996.18
2018-03-11T10:44:11.549Z,996.2
2018-03-11T10:45:11.578Z,996.19
2018-03-11T10:46:11.599Z,996.17
2018-03-11T10:47:11.626Z,996.17
2018-03-11T10:48:11.650Z,996.17
2018-03-11T10:50:11.700Z,996.11
2018-03-11T10:51:11.729Z,996.09
2018-03-11T10:52:11.751Z,996.09
2018-03-11T10:53:11.775Z,996.11
2018-03-11T10:54:11.800Z,996.05
2018-03-11T10:55:11.826Z,996.06
2018-03-11T10:56:11.851Z,996.03
2018-03-11T10:57:11.875Z,996.03
2018-03-11T10:58:11.902Z,995.95
2018-03-11T10:59:11.925Z,995.89
2018-03-11T11:00:11.949Z,995.77
2018-03-11T11:01:11.978Z,995.74
2018-03-11T11:02:12.007Z,995.69
2018-03-11T11:03:12.025Z,995.66
2018-03-11T11:04:12.048Z,995.63
2018-03-11T11:06:12.099Z,995.67
2018-03-11T11:07:12.125Z,995.66
2018-03-11T11:08:12.148Z,995.68
2018-03-11T11:09:12.174Z,995.6
2018-03-11T11:10:12.199Z,995.57
2018-03-11T11:11:12.222Z,995.62
2018-03-11T11:12:12.247Z,995.58
2018-03-11T11:13:12.272Z,995.64
2018-03-11T11:14:12.297Z,995.61
2018-03-11T11:15:12.321Z,995.6
2018-03-11T11:16:12.346Z,995.59
2018-03-11T11:17:12.372Z,995.59
2018-03-11T11:18:12.396Z,995.54
2018-03-11T11:19:12.420Z,995.48
2018-03-11T11:21:12.474Z,995.41
2018-03-11T11:22:12.495Z,995.4
2018-03-11T11:23:12.520Z,995.35
2018-03-11T11:24:12.545Z,995.39
2018-03-11T11:25:12.570Z,995.35
2018-03-11T11:26:12.595Z,995.36
2018-03-11T11:27:12.619Z,995.36
2018-03-11T11:28:12.646Z,995.31
2018-03-11T11:29:12.669Z,995.31
2018-03-11T11:30:12.745Z,995.34
2018-03-11T11:31:12.721Z,995.31
2018-03-11T11:32:12.849Z,995.32
2018-03-11T11:33:12.768Z,995.31
2018-03-11T11:34:12.793Z,995.32
2018-03-11T11:35:12.819Z,995.27
2018-03-11T11:36:12.843Z,995.29
2018-03-11T11:37:12.868Z,995.24
2018-03-11T11:38:12.893Z,995.25
2018-03-11T11:39:12.918Z,995.21
2018-03-11T11:40:12.942Z,995.19
2018-03-11T11:41:12.967Z,995.22
2018-03-11T11:42:12.992Z,995.22
2018-03-11T11:43:13.064Z,995.24
2018-03-11T11:44:13.041Z,995.23
2018-03-11T11:45:13.066Z,995.18
2018-03-11T11:46:13.092Z,995.24
2018-03-11T11:47:13.117Z,995.18
2018-03-11T11:48:13.142Z,995.13
2018-03-11T11:49:13.166Z,995.14
2018-03-11T11:50:13.191Z,995.12
2018-03-11T11:51:13.214Z,995.1
2018-03-11T11:53:13.265Z,995.07
2018-03-11T11:54:13.290Z,995.09
2018-03-11T11:55:13.357Z,995.1
2018-03-11T11:56:13.361Z,995.12
2018-03-11T11:57:13.364Z,995.07
2018-03-11T11:58:13.389Z,995.12
2018-03-11T11:59:13.412Z,995.06
2018-03-11T12:00:13.437Z,995.06
2018-03-11T12:01:13.462Z,995.04
2018-03-11T12:02:13.491Z,995.03
2018-03-11T12:03:13.512Z,995.11
2018-03-11T12:04:13.536Z,995.08
2018-03-11T12:05:13.561Z,995.09
2018-03-11T12:06:13.584Z,995.06
2018-03-11T12:07:13.612Z,995.03
2018-03-11T12:09:13.660Z,995
2018-03-11T12:10:13.685Z,994.99
2018-03-11T12:11:13.707Z,994.92
2018-03-11T12:12:13.768Z,994.83
2018-03-11T12:13:13.756Z,994.83
2018-03-11T12:14:13.780Z,994.79
2018-03-11T12:15:13.806Z,994.82
2018-03-11T12:16:13.830Z,994.81
2018-03-11T12:17:13.853Z,994.79
2018-03-11T12:18:13.879Z,994.79
2018-03-11T12:19:13.903Z,994.76
2018-03-11T12:20:13.927Z,994.78
2018-03-11T12:21:13.951Z,994.69
2018-03-11T12:22:13.976Z,994.64
2018-03-11T12:23:14.001Z,994.58
2018-03-11T12:25:14.049Z,994.49
2018-03-11T12:26:14.073Z,994.45
2018-03-11T12:27:14.202Z,994.43
2018-03-11T12:28:14.122Z,994.4
2018-03-11T12:29:14.146Z,994.37
2018-03-11T12:30:14.171Z,994.42
2018-03-11T12:31:14.195Z,994.38
2018-03-11T12:32:14.219Z,994.31
2018-03-11T12:33:14.243Z,994.36
2018-03-11T12:34:14.268Z,994.33
2018-03-11T12:35:14.292Z,994.34
2018-03-11T12:36:14.319Z,994.36
2018-03-11T12:37:14.341Z,994.33
2018-03-11T12:38:14.366Z,994.3
2018-03-11T12:39:14.389Z,994.22
2018-03-11T12:41:14.438Z,994.27
2018-03-11T12:42:14.464Z,994.3
2018-03-11T12:43:14.485Z,994.22
2018-03-11T12:44:14.511Z,994.16
2018-03-11T12:45:14.536Z,994.15
2018-03-11T12:46:14.559Z,994.07
2018-03-11T12:47:14.584Z,994.08
2018-03-11T12:48:14.608Z,994.05
2018-03-11T12:49:14.635Z,994.04
2018-03-11T12:50:14.660Z,994.02
2018-03-11T12:51:14.681Z,993.99
2018-03-11T12:52:14.705Z,993.99
2018-03-11T12:53:14.730Z,994.05
2018-03-11T12:54:14.754Z,994
2018-03-11T12:56:14.804Z,994.02
2018-03-11T12:57:14.826Z,994.05
2018-03-11T12:58:14.853Z,994.06
2018-03-11T12:59:14.879Z,994.07
2018-03-11T13:00:14.900Z,994.06
2018-03-11T13:01:14.925Z,994.15
2018-03-11T13:02:14.948Z,994.15
2018-03-11T13:03:14.973Z,994.17
2018-03-11T13:04:14.996Z,994.16
2018-03-11T13:05:15.020Z,994.12
2018-03-11T13:06:15.044Z,994.13
2018-03-11T13:07:15.070Z,994.1
2018-03-11T13:08:15.093Z,994.08
2018-03-11T13:09:15.117Z,994.03
2018-03-11T13:10:15.142Z,994.03
2018-03-11T13:11:15.166Z,994
2018-03-11T13:12:15.189Z,993.99
2018-03-11T13:13:15.213Z,994.01